createdAt,value
2022-08-26T00:00:11.638Z,1005.04
2022-08-26T00:01:11.650Z,1005.03
2022-08-26T00:02:11.690Z,1005.04
2022-08-26T00:03:11.624Z,1005.05
2022-08-26T00:04:11.666Z,1005.08
2022-08-26T00:05:11.584Z,1005.08
2022-08-26T00:06:11.577Z,1005.12
2022-08-26T00:07:11.576Z,1005.12
2022-08-26T00:08:13.028Z,1005.14
2022-08-26T00:09:11.532Z,1005.17
2022-08-26T00:10:11.533Z,1005.15
2022-08-26T00:11:11.532Z,1005.16
2022-08-26T00:12:12.109Z,1005.14
2022-08-26T00:13:11.497Z,1005.14
2022-08-26T00:14:11.469Z,1005.15
2022-08-26T00:15:11.473Z,1005.12
2022-08-26T00:16:11.671Z,1005.16
2022-08-26T00:17:11.480Z,1005.16
2022-08-26T00:18:16.862Z,1005.17
2022-08-26T00:19:11.426Z,1005.15
2022-08-26T00:20:11.419Z,1005.17
2022-08-26T00:21:11.442Z,1005.13
2022-08-26T00:22:11.433Z,1005.15
2022-08-26T00:23:11.404Z,1005.12
2022-08-26T00:24:11.384Z,1005.10
2022-08-26T00:25:11.384Z,1005.14
2022-08-26T00:26:11.346Z,1005.09
2022-08-26T00:27:11.360Z,1005.08
2022-08-26T00:28:11.323Z,1005.12
2022-08-26T00:29:11.310Z,1005.10
2022-08-26T00:30:11.305Z,1005.09
2022-08-26T00:31:11.323Z,1005.06
2022-08-26T00:32:11.526Z,1005.08
2022-08-26T00:33:11.267Z,1005.05
2022-08-26T00:34:12.021Z,1005.03
2022-08-26T00:35:11.260Z,1005.04
2022-08-26T00:36:20.433Z,1005.04
2022-08-26T00:37:15.666Z,1005.03
2022-08-26T00:38:11.228Z,1005.07
2022-08-26T00:39:11.211Z,1005.04
2022-08-26T00:40:11.337Z,1005.04
2022-08-26T00:41:11.178Z,1005.00
2022-08-26T00:42:11.190Z,1005.02
2022-08-26T00:43:11.187Z,1005.04
2022-08-26T00:44:11.296Z,1005.03
2022-08-26T00:45:11.740Z,1005.02
2022-08-26T00:46:11.205Z,1005.02
2022-08-26T00:47:11.156Z,1005.01
2022-08-26T00:48:11.104Z,1005.01
2022-08-26T00:49:11.809Z,1005.01
2022-08-26T00:50:11.110Z,1005.00
2022-08-26T00:51:11.068Z,1005.05
2022-08-26T00:52:12.075Z,1005.04
2022-08-26T00:53:11.044Z,1005.01
2022-08-26T00:54:11.051Z,1005.01
2022-08-26T00:55:11.052Z,1005.00
2022-08-26T00:56:11.014Z,1004.98
2022-08-26T00:57:16.477Z,1004.99
2022-08-26T00:58:10.997Z,1005.00
2022-08-26T00:59:10.975Z,1004.98
2022-08-26T01:00:10.999Z,1004.97
2022-08-26T01:01:11.027Z,1004.98
2022-08-26T01:02:20.916Z,1004.99
2022-08-26T01:03:11.623Z,1005.02
2022-08-26T01:04:10.959Z,1005.00
2022-08-26T01:05:10.919Z,1004.96
2022-08-26T01:06:12.970Z,1004.97
2022-08-26T01:07:10.903Z,1004.96
2022-08-26T01:08:10.874Z,1004.98
2022-08-26T01:09:10.874Z,1005.02
2022-08-26T01:10:10.884Z,1004.99
2022-08-26T01:11:10.837Z,1005.02
2022-08-26T01:12:10.918Z,1005.01
2022-08-26T01:13:10.853Z,1005.01
2022-08-26T01:14:10.844Z,1005.05
2022-08-26T01:15:10.809Z,1005.06
2022-08-26T01:16:10.830Z,1005.10
2022-08-26T01:17:10.807Z,1005.14
2022-08-26T01:18:10.762Z,1005.28
2022-08-26T01:19:10.750Z,1005.34
2022-08-26T01:20:10.750Z,1005.36
2022-08-26T01:21:10.730Z,1005.33
2022-08-26T01:22:10.736Z,1005.30
2022-08-26T01:23:10.706Z,1005.39
2022-08-26T01:24:10.720Z,1005.47
2022-08-26T01:25:10.693Z,1005.47
2022-08-26T01:26:19.473Z,1005.40
2022-08-26T01:27:10.682Z,1005.31
2022-08-26T01:28:10.650Z,1005.27
2022-08-26T01:29:10.662Z,1005.30
2022-08-26T01:30:10.622Z,1005.39
2022-08-26T01:31:10.676Z,1005.39
2022-08-26T01:32:10.652Z,1005.34
2022-08-26T01:33:10.592Z,1005.33
2022-08-26T01:34:10.591Z,1005.28
2022-08-26T01:35:10.585Z,1005.31
2022-08-26T01:36:10.554Z,1005.40
2022-08-26T01:37:15.473Z,1005.33
2022-08-26T01:38:10.541Z,1005.25
2022-08-26T01:39:10.527Z,1005.16
2022-08-26T01:40:10.575Z,1005.23
2022-08-26T01:41:16.156Z,1005.22
2022-08-26T01:42:10.597Z,1005.22
2022-08-26T01:43:10.488Z,1005.21
2022-08-26T01:44:10.465Z,1005.20
2022-08-26T01:45:10.458Z,1005.20
2022-08-26T01:46:10.542Z,1005.22
2022-08-26T01:47:10.473Z,1005.23
2022-08-26T01:48:10.421Z,1005.22
2022-08-26T01:49:10.436Z,1005.23
2022-08-26T01:50:10.397Z,1005.25
2022-08-26T01:51:10.397Z,1005.26
2022-08-26T01:52:10.791Z,1005.18
2022-08-26T01:53:10.721Z,1005.16
2022-08-26T01:54:12.050Z,1005.25
2022-08-26T01:55:10.349Z,1005.24
2022-08-26T01:56:10.345Z,1005.22
2022-08-26T01:57:10.339Z,1005.24
2022-08-26T01:58:10.311Z,1005.26
2022-08-26T01:59:10.728Z,1005.29
2022-08-26T02:00:10.301Z,1005.29
2022-08-26T02:01:10.335Z,1005.29
2022-08-26T02:02:10.315Z,1005.31
2022-08-26T02:03:10.258Z,1005.25
2022-08-26T02:04:10.357Z,1005.24
2022-08-26T02:05:10.246Z,1005.26
2022-08-26T02:06:10.360Z,1005.26
2022-08-26T02:07:10.257Z,1005.25
2022-08-26T02:08:10.202Z,1005.27
2022-08-26T02:09:10.190Z,1005.29
2022-08-26T02:10:10.185Z,1005.29
2022-08-26T02:11:10.176Z,1005.31
2022-08-26T02:12:10.363Z,1005.32
2022-08-26T02:13:10.165Z,1005.29
2022-08-26T02:14:10.154Z,1005.30
2022-08-26T02:15:11.079Z,1005.31
2022-08-26T02:16:10.164Z,1005.31
2022-08-26T02:17:10.122Z,1005.30
2022-08-26T02:18:14.181Z,1005.31
2022-08-26T02:19:10.090Z,1005.30
2022-08-26T02:20:13.359Z,1005.29
2022-08-26T02:21:10.068Z,1005.27
2022-08-26T02:22:10.070Z,1005.27
2022-08-26T02:23:10.044Z,1005.32
2022-08-26T02:24:10.027Z,1005.33
2022-08-26T02:25:10.027Z,1005.31
2022-08-26T02:26:10.023Z,1005.31
2022-08-26T02:27:10.015Z,1005.31
2022-08-26T02:28:09.982Z,1005.30
2022-08-26T02:29:09.975Z,1005.29
2022-08-26T02:30:09.975Z,1005.29
2022-08-26T02:31:10.069Z,1005.29
2022-08-26T02:32:09.965Z,1005.34
2022-08-26T02:33:09.942Z,1005.32
2022-08-26T02:34:10.805Z,1005.32
2022-08-26T02:35:09.929Z,1005.31
2022-08-26T02:36:09.895Z,1005.33
2022-08-26T02:37:09.917Z,1005.34
2022-08-26T02:38:11.011Z,1005.33
2022-08-26T02:39:09.888Z,1005.29
2022-08-26T02:40:09.927Z,1005.29
2022-08-26T02:41:09.846Z,1005.29
2022-08-26T02:42:09.870Z,1005.31
2022-08-26T02:43:09.889Z,1005.26
2022-08-26T02:44:09.837Z,1005.34
2022-08-26T02:45:09.797Z,1005.34
2022-08-26T02:46:09.794Z,1005.37
2022-08-26T02:47:09.826Z,1005.29
2022-08-26T02:48:09.771Z,1005.34
2022-08-26T02:49:09.768Z,1005.35
2022-08-26T02:50:09.746Z,1005.42
2022-08-26T02:51:09.756Z,1005.43
2022-08-26T02:52:09.747Z,1005.43
2022-08-26T02:53:09.948Z,1005.42
2022-08-26T02:54:09.742Z,1005.41
2022-08-26T02:55:09.700Z,1005.41
2022-08-26T02:56:09.691Z,1005.43
2022-08-26T02:57:09.712Z,1005.39
2022-08-26T02:58:09.670Z,1005.36
2022-08-26T02:59:09.663Z,1005.32
2022-08-26T03:00:09.641Z,1005.34
2022-08-26T03:01:09.687Z,1005.36
2022-08-26T03:02:09.672Z,1005.38
2022-08-26T03:03:09.808Z,1005.41
2022-08-26T03:04:09.598Z,1005.42
2022-08-26T03:05:09.582Z,1005.40
2022-08-26T03:06:09.640Z,1005.38
2022-08-26T03:07:09.589Z,1005.36
2022-08-26T03:08:09.579Z,1005.36
2022-08-26T03:09:09.543Z,1005.34
2022-08-26T03:10:09.536Z,1005.35
2022-08-26T03:11:09.531Z,1005.35
2022-08-26T03:12:09.534Z,1005.37
2022-08-26T03:13:09.717Z,1005.36
2022-08-26T03:14:09.498Z,1005.36
2022-08-26T03:15:16.608Z,1005.34
2022-08-26T03:16:09.535Z,1005.30
2022-08-26T03:17:09.629Z,1005.31
2022-08-26T03:18:09.450Z,1005.30
2022-08-26T03:19:09.439Z,1005.29
2022-08-26T03:20:09.426Z,1005.29
2022-08-26T03:21:09.413Z,1005.29
2022-08-26T03:22:09.447Z,1005.32
2022-08-26T03:23:09.512Z,1005.28
2022-08-26T03:24:09.387Z,1005.28
2022-08-26T03:25:09.367Z,1005.26
2022-08-26T03:26:10.906Z,1005.25
2022-08-26T03:27:09.365Z,1005.29
2022-08-26T03:28:09.667Z,1005.29
2022-08-26T03:29:09.331Z,1005.27
2022-08-26T03:30:11.813Z,1005.26
2022-08-26T03:31:09.329Z,1005.30
2022-08-26T03:32:09.315Z,1005.28
2022-08-26T03:33:09.409Z,1005.25
2022-08-26T03:34:09.265Z,1005.28
2022-08-26T03:35:09.258Z,1005.24
2022-08-26T03:36:09.246Z,1005.22
2022-08-26T03:37:09.268Z,1005.24
2022-08-26T03:38:09.227Z,1005.20
2022-08-26T03:39:09.224Z,1005.22
2022-08-26T03:40:09.267Z,1005.23
2022-08-26T03:41:09.193Z,1005.23
2022-08-26T03:42:09.208Z,1005.20
2022-08-26T03:43:10.011Z,1005.29
2022-08-26T03:44:09.169Z,1005.29
2022-08-26T03:45:13.654Z,1005.26
2022-08-26T03:46:09.175Z,1005.30
2022-08-26T03:47:09.141Z,1005.31
2022-08-26T03:48:09.117Z,1005.33
2022-08-26T03:49:09.099Z,1005.34
2022-08-26T03:50:09.111Z,1005.36
2022-08-26T03:51:09.079Z,1005.34
2022-08-26T03:52:09.109Z,1005.35
2022-08-26T03:53:13.273Z,1005.32
2022-08-26T03:54:09.052Z,1005.30
2022-08-26T03:55:09.055Z,1005.35
2022-08-26T03:56:09.072Z,1005.36
2022-08-26T03:57:09.037Z,1005.38
2022-08-26T03:58:09.010Z,1005.40
2022-08-26T03:59:08.986Z,1005.40
2022-08-26T04:00:08.977Z,1005.42
2022-08-26T04:01:08.983Z,1005.38
2022-08-26T04:02:11.715Z,1005.37
2022-08-26T04:03:09.674Z,1005.38
2022-08-26T04:04:08.971Z,1005.38
2022-08-26T04:05:08.938Z,1005.40
2022-08-26T04:06:08.952Z,1005.38
2022-08-26T04:07:08.924Z,1005.37
2022-08-26T04:08:08.912Z,1005.39
2022-08-26T04:09:08.890Z,1005.42
2022-08-26T04:10:08.928Z,1005.39
2022-08-26T04:11:08.886Z,1005.42
2022-08-26T04:12:08.881Z,1005.46
2022-08-26T04:13:09.009Z,1005.43
2022-08-26T04:14:08.826Z,1005.38
2022-08-26T04:15:08.814Z,1005.39
2022-08-26T04:16:08.805Z,1005.39
2022-08-26T04:17:08.840Z,1005.42
2022-08-26T04:18:08.780Z,1005.42
2022-08-26T04:19:08.783Z,1005.41
2022-08-26T04:20:08.776Z,1005.34
2022-08-26T04:21:08.771Z,1005.42
2022-08-26T04:22:08.733Z,1005.40
2022-08-26T04:23:08.910Z,1005.36
2022-08-26T04:24:12.172Z,1005.32
2022-08-26T04:25:08.705Z,1005.40
2022-08-26T04:26:08.711Z,1005.31
2022-08-26T04:27:08.700Z,1005.34
2022-08-26T04:28:08.705Z,1005.33
2022-08-26T04:29:08.678Z,1005.37
2022-08-26T04:30:08.913Z,1005.39
2022-08-26T04:31:08.646Z,1005.40
2022-08-26T04:32:08.641Z,1005.37
2022-08-26T04:33:12.905Z,1005.38
2022-08-26T04:34:08.676Z,1005.39
2022-08-26T04:35:08.598Z,1005.38
2022-08-26T04:36:08.635Z,1005.45
2022-08-26T04:37:08.564Z,1005.45
2022-08-26T04:38:08.565Z,1005.46
2022-08-26T04:39:08.569Z,1005.46
2022-08-26T04:40:08.573Z,1005.48
2022-08-26T04:41:14.962Z,1005.47
2022-08-26T04:42:08.533Z,1005.49
2022-08-26T04:43:08.647Z,1005.48
2022-08-26T04:44:08.500Z,1005.48
2022-08-26T04:45:10.435Z,1005.49
2022-08-26T04:46:08.588Z,1005.47
2022-08-26T04:47:08.469Z,1005.46
2022-08-26T04:48:08.453Z,1005.52
2022-08-26T04:49:08.458Z,1005.46
2022-08-26T04:50:08.453Z,1005.49
2022-08-26T04:51:08.409Z,1005.47
2022-08-26T04:52:08.406Z,1005.53
2022-08-26T04:53:08.640Z,1005.52
2022-08-26T04:54:08.407Z,1005.53
2022-08-26T04:55:08.768Z,1005.55
2022-08-26T04:56:08.367Z,1005.57
2022-08-26T04:57:08.355Z,1005.59
2022-08-26T04:58:08.339Z,1005.61
2022-08-26T04:59:08.326Z,1005.60
2022-08-26T05:00:08.378Z,1005.63
2022-08-26T05:01:08.317Z,1005.62
2022-08-26T05:02:08.393Z,1005.64
2022-08-26T05:03:10.401Z,1005.62
2022-08-26T05:04:08.386Z,1005.65
2022-08-26T05:05:08.258Z,1005.62
2022-08-26T05:06:08.271Z,1005.63
2022-08-26T05:07:08.264Z,1005.66
2022-08-26T05:08:08.222Z,1005.67
2022-08-26T05:09:08.212Z,1005.69
2022-08-26T05:10:08.807Z,1005.69
2022-08-26T05:11:08.189Z,1005.65
2022-08-26T05:12:08.196Z,1005.64
2022-08-26T05:13:08.236Z,1005.64
2022-08-26T05:14:08.158Z,1005.67
2022-08-26T05:15:08.156Z,1005.66
2022-08-26T05:16:08.207Z,1005.73
2022-08-26T05:17:08.169Z,1005.69
2022-08-26T05:18:08.141Z,1005.71
2022-08-26T05:19:08.559Z,1005.72
2022-08-26T05:20:08.096Z,1005.71
2022-08-26T05:21:08.086Z,1005.75
2022-08-26T05:22:08.074Z,1005.77
2022-08-26T05:23:08.202Z,1005.74
2022-08-26T05:24:08.063Z,1005.74
2022-08-26T05:25:08.074Z,1005.80
2022-08-26T05:26:08.029Z,1005.77
2022-08-26T05:27:11.837Z,1005.77
2022-08-26T05:28:08.028Z,1005.77
2022-08-26T05:29:07.989Z,1005.80
2022-08-26T05:30:07.985Z,1005.81
2022-08-26T05:31:08.066Z,1005.78
2022-08-26T05:32:07.955Z,1005.77
2022-08-26T05:33:08.218Z,1005.80
2022-08-26T05:34:08.428Z,1005.79
2022-08-26T05:35:09.020Z,1005.80
2022-08-26T05:36:07.911Z,1005.86
2022-08-26T05:37:07.904Z,1005.86
2022-08-26T05:38:12.282Z,1005.92
2022-08-26T05:39:07.904Z,1005.90
2022-08-26T05:40:07.939Z,1005.87
2022-08-26T05:41:07.871Z,1005.92
2022-08-26T05:42:07.849Z,1005.91
2022-08-26T05:43:07.972Z,1005.89
2022-08-26T05:44:07.842Z,1005.85
2022-08-26T05:45:07.830Z,1005.87
2022-08-26T05:46:07.827Z,1005.93
2022-08-26T05:47:07.802Z,1005.95
2022-08-26T05:48:07.780Z,1005.94
2022-08-26T05:49:12.241Z,1005.98
2022-08-26T05:50:07.763Z,1005.98
2022-08-26T05:51:07.756Z,1005.95
2022-08-26T05:52:07.752Z,1005.93
2022-08-26T05:53:07.835Z,1005.97
2022-08-26T05:54:07.753Z,1005.99
2022-08-26T05:55:07.710Z,1005.99
2022-08-26T05:56:07.702Z,1005.98
2022-08-26T05:57:07.724Z,1006.00
2022-08-26T05:58:07.674Z,1006.02
2022-08-26T05:59:10.891Z,1005.99
2022-08-26T06:00:07.689Z,1006.02
2022-08-26T06:01:07.673Z,1006.01
2022-08-26T06:02:07.628Z,1006.03
2022-08-26T06:03:07.863Z,1006.02
2022-08-26T06:04:07.607Z,1006.09
2022-08-26T06:05:07.707Z,1006.07
2022-08-26T06:06:07.583Z,1006.05
2022-08-26T06:07:07.575Z,1006.11
2022-08-26T06:08:07.565Z,1006.06
2022-08-26T06:09:09.445Z,1006.10
2022-08-26T06:10:30.970Z,1006.11
2022-08-26T06:11:07.544Z,1006.10
2022-08-26T06:12:07.527Z,1006.11
2022-08-26T06:13:11.884Z,1006.13
2022-08-26T06:14:07.504Z,1006.11
2022-08-26T06:15:07.506Z,1006.11
2022-08-26T06:16:07.519Z,1006.12
2022-08-26T06:17:07.478Z,1006.13
2022-08-26T06:18:07.505Z,1006.11
2022-08-26T06:19:10.984Z,1006.14
2022-08-26T06:20:07.465Z,1006.14
2022-08-26T06:21:07.435Z,1006.15
2022-08-26T06:22:07.453Z,1006.14
2022-08-26T06:23:07.555Z,1006.17
2022-08-26T06:24:07.388Z,1006.18
2022-08-26T06:25:07.391Z,1006.23
2022-08-26T06:26:07.413Z,1006.19
2022-08-26T06:27:07.360Z,1006.22
2022-08-26T06:28:07.347Z,1006.25
2022-08-26T06:29:07.337Z,1006.26
2022-08-26T06:30:07.333Z,1006.28
2022-08-26T06:31:07.403Z,1006.29
2022-08-26T06:32:07.321Z,1006.28
2022-08-26T06:33:07.559Z,1006.31
2022-08-26T06:34:10.519Z,1006.33
2022-08-26T06:35:07.270Z,1006.30
2022-08-26T06:36:07.272Z,1006.29
2022-08-26T06:37:07.291Z,1006.30
2022-08-26T06:38:07.250Z,1006.32
2022-08-26T06:39:07.241Z,1006.31
2022-08-26T06:40:07.286Z,1006.32
2022-08-26T06:41:07.243Z,1006.32
2022-08-26T06:42:07.246Z,1006.30
2022-08-26T06:43:07.326Z,1006.28
2022-08-26T06:44:07.177Z,1006.34
2022-08-26T06:45:07.192Z,1006.31
2022-08-26T06:46:07.213Z,1006.32
2022-08-26T06:47:07.149Z,1006.36
2022-08-26T06:48:07.162Z,1006.35
2022-08-26T06:49:07.147Z,1006.32
2022-08-26T06:50:07.110Z,1006.39
2022-08-26T06:51:07.106Z,1006.36
2022-08-26T06:52:07.106Z,1006.38
2022-08-26T06:53:07.334Z,1006.37
2022-08-26T06:54:07.071Z,1006.40
2022-08-26T06:55:07.067Z,1006.40
2022-08-26T06:56:07.068Z,1006.42
2022-08-26T06:57:07.113Z,1006.39
2022-08-26T06:58:07.146Z,1006.40
2022-08-26T06:59:07.637Z,1006.41
2022-08-26T07:00:07.017Z,1006.41
2022-08-26T07:01:11.484Z,1006.42
2022-08-26T07:02:07.049Z,1006.40
2022-08-26T07:03:07.349Z,1006.45
2022-08-26T07:04:07.912Z,1006.47
2022-08-26T07:05:06.941Z,1006.46
2022-08-26T07:06:07.018Z,1006.44
2022-08-26T07:07:06.923Z,1006.44
2022-08-26T07:08:06.933Z,1006.47
2022-08-26T07:09:06.920Z,1006.48
2022-08-26T07:10:06.894Z,1006.44
2022-08-26T07:11:06.887Z,1006.44
2022-08-26T07:12:07.420Z,1006.41
2022-08-26T07:13:06.962Z,1006.48
2022-08-26T07:14:06.879Z,1006.42
2022-08-26T07:15:06.850Z,1006.43
2022-08-26T07:16:06.858Z,1006.47
2022-08-26T07:17:09.183Z,1006.44
2022-08-26T07:18:06.816Z,1006.43
2022-08-26T07:19:10.930Z,1006.42
2022-08-26T07:20:06.813Z,1006.47
2022-08-26T07:21:06.767Z,1006.47
2022-08-26T07:22:06.757Z,1006.46
2022-08-26T07:23:06.924Z,1006.46
2022-08-26T07:24:06.734Z,1006.46
2022-08-26T07:25:06.763Z,1006.45
2022-08-26T07:26:06.727Z,1006.48
2022-08-26T07:27:06.709Z,1006.46
2022-08-26T07:28:06.691Z,1006.48
2022-08-26T07:29:06.710Z,1006.47
2022-08-26T07:30:06.669Z,1006.48
2022-08-26T07:31:07.441Z,1006.47
2022-08-26T07:32:06.650Z,1006.48
2022-08-26T07:33:06.765Z,1006.50
2022-08-26T07:34:06.631Z,1006.51
2022-08-26T07:35:06.615Z,1006.53
2022-08-26T07:36:06.619Z,1006.57
2022-08-26T07:37:08.849Z,1006.56
2022-08-26T07:38:06.578Z,1006.56
2022-08-26T07:39:06.575Z,1006.61
2022-08-26T07:40:06.596Z,1006.60
2022-08-26T07:41:06.541Z,1006.62
2022-08-26T07:42:07.576Z,1006.67
2022-08-26T07:43:06.801Z,1006.70
2022-08-26T07:44:06.508Z,1006.69
2022-08-26T07:45:06.520Z,1006.67
2022-08-26T07:46:06.489Z,1006.73
2022-08-26T07:47:24.236Z,1006.73
2022-08-26T07:48:06.474Z,1006.75
2022-08-26T07:49:06.503Z,1006.77
2022-08-26T07:50:06.443Z,1006.77
2022-08-26T07:51:06.451Z,1006.80
2022-08-26T07:52:06.434Z,1006.78
2022-08-26T07:53:06.479Z,1006.79
2022-08-26T07:54:06.395Z,1006.82
2022-08-26T07:55:06.384Z,1006.79
2022-08-26T07:56:06.433Z,1006.79
2022-08-26T07:57:09.281Z,1006.77
2022-08-26T07:58:06.370Z,1006.79
2022-08-26T07:59:13.818Z,1006.83
2022-08-26T08:00:06.337Z,1006.83
2022-08-26T08:01:06.353Z,1006.88
2022-08-26T08:02:06.309Z,1006.86
2022-08-26T08:03:06.392Z,1006.88
2022-08-26T08:04:06.292Z,1006.91
2022-08-26T08:05:06.306Z,1006.93
2022-08-26T08:06:06.314Z,1006.90
2022-08-26T08:07:07.514Z,1006.95
2022-08-26T08:08:27.368Z,1006.92
2022-08-26T08:09:06.302Z,1006.95
2022-08-26T08:10:09.762Z,1006.93
2022-08-26T08:11:06.233Z,1006.97
2022-08-26T08:12:06.199Z,1006.95
2022-08-26T08:13:06.301Z,1006.91
2022-08-26T08:14:08.462Z,1006.93
2022-08-26T08:15:06.197Z,1006.94
2022-08-26T08:16:06.162Z,1006.93
2022-08-26T08:17:06.309Z,1006.96
2022-08-26T08:18:06.211Z,1006.99
2022-08-26T08:19:06.160Z,1006.97
2022-08-26T08:20:06.109Z,1007.00
2022-08-26T08:21:20.963Z,1006.99
2022-08-26T08:22:17.096Z,1006.99
2022-08-26T08:23:06.078Z,1006.99
2022-08-26T08:24:06.057Z,1006.96
2022-08-26T08:25:06.232Z,1007.00
2022-08-26T08:26:06.054Z,1007.01
2022-08-26T08:27:06.071Z,1007.03
2022-08-26T08:28:06.106Z,1007.02
2022-08-26T08:29:06.008Z,1007.03
2022-08-26T08:30:06.021Z,1007.05
2022-08-26T08:31:06.085Z,1007.08
2022-08-26T08:32:06.073Z,1007.10
2022-08-26T08:33:05.982Z,1007.11
2022-08-26T08:34:05.952Z,1007.11
2022-08-26T08:35:11.089Z,1007.07
2022-08-26T08:36:05.945Z,1007.11
2022-08-26T08:37:08.621Z,1007.12
2022-08-26T08:38:05.985Z,1007.10
2022-08-26T08:39:06.387Z,1007.06
2022-08-26T08:40:05.954Z,1007.10
2022-08-26T08:41:05.920Z,1007.10
2022-08-26T08:42:05.923Z,1007.09
2022-08-26T08:43:05.912Z,1007.11
2022-08-26T08:44:05.878Z,1007.10
2022-08-26T08:45:05.842Z,1007.08
2022-08-26T08:46:05.856Z,1007.01
2022-08-26T08:47:05.823Z,1007.00
2022-08-26T08:48:05.852Z,1007.01
2022-08-26T08:49:05.836Z,1007.00
2022-08-26T08:50:05.783Z,1007.02
2022-08-26T08:51:05.762Z,1007.02
2022-08-26T08:52:05.777Z,1007.02
2022-08-26T08:53:08.932Z,1007.00
2022-08-26T08:54:05.735Z,1007.01
2022-08-26T08:55:05.732Z,1006.99
2022-08-26T08:56:05.706Z,1007.01
2022-08-26T08:57:05.711Z,1007.03
2022-08-26T08:58:05.840Z,1007.04
2022-08-26T08:59:05.677Z,1007.02
2022-08-26T09:00:05.661Z,1006.97
2022-08-26T09:01:06.007Z,1006.98
2022-08-26T09:02:05.683Z,1007.00
2022-08-26T09:03:05.665Z,1006.99
2022-08-26T09:04:05.645Z,1007.01
2022-08-26T09:05:05.605Z,1006.99
2022-08-26T09:06:05.590Z,1007.02
2022-08-26T09:07:05.615Z,1006.99
2022-08-26T09:08:06.582Z,1007.01
2022-08-26T09:09:05.577Z,1007.04
2022-08-26T09:10:05.552Z,1007.03
2022-08-26T09:11:05.564Z,1007.09
2022-08-26T09:12:05.534Z,1007.11
2022-08-26T09:13:05.531Z,1007.14
2022-08-26T09:14:05.563Z,1007.15
2022-08-26T09:15:05.499Z,1007.15
2022-08-26T09:16:05.478Z,1007.13
2022-08-26T09:17:05.504Z,1007.13
2022-08-26T09:18:05.852Z,1007.15
2022-08-26T09:19:05.513Z,1007.13
2022-08-26T09:20:05.440Z,1007.11
2022-08-26T09:21:05.448Z,1007.15
2022-08-26T09:22:09.338Z,1007.15
2022-08-26T09:23:05.491Z,1007.12
2022-08-26T09:24:05.425Z,1007.09
2022-08-26T09:25:05.437Z,1007.11
2022-08-26T09:26:05.388Z,1007.12
2022-08-26T09:27:05.679Z,1007.17
2022-08-26T09:28:05.421Z,1007.16
2022-08-26T09:29:05.377Z,1007.15
2022-08-26T09:30:05.372Z,1007.16
2022-08-26T09:31:09.273Z,1007.19
2022-08-26T09:32:05.325Z,1007.19
2022-08-26T09:33:10.057Z,1007.21
2022-08-26T09:34:05.297Z,1007.20
2022-08-26T09:35:06.271Z,1007.20
2022-08-26T09:36:05.307Z,1007.21
2022-08-26T09:37:05.294Z,1007.24
2022-08-26T09:38:06.157Z,1007.24
2022-08-26T09:39:05.257Z,1007.23
2022-08-26T09:40:05.302Z,1007.22
2022-08-26T09:41:05.312Z,1007.22
2022-08-26T09:42:05.210Z,1007.22
2022-08-26T09:43:05.202Z,1007.22
2022-08-26T09:44:05.186Z,1007.26
2022-08-26T09:45:05.175Z,1007.18
2022-08-26T09:46:05.207Z,1007.26
2022-08-26T09:47:05.165Z,1007.22
2022-08-26T09:48:05.144Z,1007.17
2022-08-26T09:49:05.133Z,1007.19
2022-08-26T09:50:05.142Z,1007.18
2022-08-26T09:51:05.103Z,1007.21
2022-08-26T09:52:05.126Z,1007.18
2022-08-26T09:53:05.186Z,1007.19
2022-08-26T09:54:05.626Z,1007.20
2022-08-26T09:55:05.066Z,1007.18
2022-08-26T09:56:05.066Z,1007.19
2022-08-26T09:57:05.063Z,1007.21
2022-08-26T09:58:07.738Z,1007.22
2022-08-26T09:59:05.013Z,1007.21
2022-08-26T10:00:05.017Z,1007.21
2022-08-26T10:01:05.026Z,1007.21
2022-08-26T10:02:05.037Z,1007.21
2022-08-26T10:03:05.024Z,1007.22
2022-08-26T10:04:04.991Z,1007.20
2022-08-26T10:05:09.680Z,1007.20
2022-08-26T10:06:04.951Z,1007.20
2022-08-26T10:07:04.938Z,1007.17
2022-08-26T10:08:04.978Z,1007.17
2022-08-26T10:09:08.871Z,1007.19
2022-08-26T10:10:04.906Z,1007.16
2022-08-26T10:11:04.894Z,1007.15
2022-08-26T10:12:04.871Z,1007.19
2022-08-26T10:13:04.904Z,1007.15
2022-08-26T10:14:04.879Z,1007.12
2022-08-26T10:15:04.850Z,1007.17
2022-08-26T10:16:05.694Z,1007.17
2022-08-26T10:17:05.356Z,1007.15
2022-08-26T10:18:04.832Z,1007.15
2022-08-26T10:19:04.797Z,1007.16
2022-08-26T10:20:04.838Z,1007.13
2022-08-26T10:21:04.784Z,1007.15
2022-08-26T10:22:04.770Z,1007.13
2022-08-26T10:23:04.762Z,1007.12
2022-08-26T10:24:04.754Z,1007.14
2022-08-26T10:25:04.742Z,1007.12
2022-08-26T10:26:04.720Z,1007.12
2022-08-26T10:27:04.762Z,1007.10
2022-08-26T10:28:04.783Z,1007.11
2022-08-26T10:29:04.697Z,1007.08
2022-08-26T10:30:04.675Z,1007.06
2022-08-26T10:31:04.703Z,1007.00
2022-08-26T10:32:04.738Z,1007.07
2022-08-26T10:33:04.688Z,1007.04
2022-08-26T10:34:04.690Z,1007.01
2022-08-26T10:35:04.634Z,1007.03
2022-08-26T10:36:04.652Z,1007.06
2022-08-26T10:37:14.304Z,1007.03
2022-08-26T10:38:04.593Z,1007.01
2022-08-26T10:39:04.619Z,1007.00
2022-08-26T10:40:04.618Z,1006.97
2022-08-26T10:41:10.395Z,1006.99
2022-08-26T10:42:04.570Z,1006.97
2022-08-26T10:43:09.963Z,1006.94
2022-08-26T10:44:04.530Z,1006.95
2022-08-26T10:45:04.566Z,1006.96
2022-08-26T10:46:04.648Z,1006.92
2022-08-26T10:47:04.523Z,1006.95
2022-08-26T10:48:04.478Z,1006.94
2022-08-26T10:49:04.465Z,1006.93
2022-08-26T10:50:04.459Z,1006.97
2022-08-26T10:51:04.447Z,1006.94
2022-08-26T10:52:04.454Z,1006.93
2022-08-26T10:53:04.455Z,1006.95
2022-08-26T10:54:04.406Z,1006.93
2022-08-26T10:55:04.475Z,1006.92
2022-08-26T10:56:04.432Z,1006.93
2022-08-26T10:57:04.399Z,1006.91
2022-08-26T10:58:04.709Z,1006.92
2022-08-26T10:59:04.360Z,1006.95
2022-08-26T11:00:04.358Z,1006.94
2022-08-26T11:01:10.408Z,1006.94
2022-08-26T11:02:04.331Z,1006.93
2022-08-26T11:03:04.339Z,1006.92
2022-08-26T11:04:04.385Z,1006.93
2022-08-26T11:05:04.287Z,1006.93
2022-08-26T11:06:04.270Z,1006.93
2022-08-26T11:07:04.303Z,1006.96
2022-08-26T11:08:04.261Z,1006.93
2022-08-26T11:09:04.301Z,1006.96
2022-08-26T11:10:04.267Z,1006.99
2022-08-26T11:11:04.219Z,1006.98
2022-08-26T11:12:10.007Z,1006.97
2022-08-26T11:13:04.221Z,1007.00
2022-08-26T11:14:04.197Z,1006.96
2022-08-26T11:15:05.195Z,1006.96
2022-08-26T11:16:04.202Z,1006.95
2022-08-26T11:17:04.195Z,1006.96
2022-08-26T11:18:04.149Z,1006.98
2022-08-26T11:19:04.148Z,1006.93
2022-08-26T11:20:09.067Z,1006.96
2022-08-26T11:21:04.157Z,1006.94
2022-08-26T11:22:04.168Z,1006.95
2022-08-26T11:23:04.115Z,1006.91
2022-08-26T11:24:04.158Z,1006.90
2022-08-26T11:25:04.092Z,1006.92
2022-08-26T11:26:04.093Z,1006.88
2022-08-26T11:27:04.051Z,1006.87
2022-08-26T11:28:04.238Z,1006.87
2022-08-26T11:29:04.057Z,1006.85
2022-08-26T11:30:04.020Z,1006.88
2022-08-26T11:31:04.522Z,1006.87
2022-08-26T11:32:04.039Z,1006.91
2022-08-26T11:33:03.983Z,1006.90
2022-08-26T11:34:03.973Z,1006.92
2022-08-26T11:35:03.965Z,1006.94
2022-08-26T11:36:11.522Z,1006.89
2022-08-26T11:37:04.078Z,1006.91
2022-08-26T11:38:04.290Z,1006.94
2022-08-26T11:39:03.929Z,1006.94
2022-08-26T11:40:04.092Z,1006.94
2022-08-26T11:41:03.906Z,1006.90
2022-08-26T11:42:03.915Z,1006.90
2022-08-26T11:43:03.869Z,1006.86
2022-08-26T11:44:03.889Z,1006.93
2022-08-26T11:45:05.645Z,1006.89
2022-08-26T11:46:03.947Z,1006.85
2022-08-26T11:47:03.829Z,1006.86
2022-08-26T11:48:03.854Z,1006.85
2022-08-26T11:49:03.818Z,1006.87
2022-08-26T11:50:03.808Z,1006.88
2022-08-26T11:51:03.808Z,1006.89
2022-08-26T11:52:03.780Z,1006.85
2022-08-26T11:53:03.798Z,1006.81
2022-08-26T11:54:03.760Z,1006.82
2022-08-26T11:55:03.751Z,1006.85
2022-08-26T11:56:03.731Z,1006.85
2022-08-26T11:57:09.362Z,1006.84
2022-08-26T11:58:04.850Z,1006.78
2022-08-26T11:59:03.724Z,1006.84
2022-08-26T12:00:03.686Z,1006.83
2022-08-26T12:01:03.768Z,1006.80
2022-08-26T12:02:03.675Z,1006.80
2022-08-26T12:03:03.746Z,1006.80
2022-08-26T12:04:03.781Z,1006.75
2022-08-26T12:05:03.674Z,1006.75